首页
METAR-TAF:

METAR-TAF

机场 :

阿格拉, 印度

纬度: 27-09-27N, 经度: 077-57-39E, 海拔: 168米

当前天气观测

该预报发布于20小时和29分钟前的01:00 UTC
风速3节,风向西转西北
温度 31°C
湿度 63%
气压 999 hPa
能見度: 6000
散云层高于3000英尺
多云层高于9000英尺

METAR: VIAG 220100Z 30003KT 6000 SCT030 BKN090 31/23 Q0999 TEMPO 29015G25KT 5000 RA

时间: 02:59 (21:29 UTC)

预报

该预报发布于4小时和29分钟前的17:00 UTC
预报有效从22日的 18点(UTC)到 24日的 00点(UTC)
风速5节,风向东北
能見度: 6000
散云层高于3000英尺
散云层高于9000英尺
短暂存在
从 22日的 22点(UTC)到 23日的 02点(UTC)
风速10节,风向北转东北,有时为20节阵风
能見度: 5000
散云层高于2000英尺
少量云层高于3000英尺, 积雨云.
多云层高于9000英尺
雷暴, 雨
短暂存在
从 23日的 08点(UTC)到 23日的 12点(UTC)
风速15节,风向东转东南,有时为25节阵风
能見度: 3000
散云层高于2000英尺
少量云层高于3000英尺, 积雨云.
多云层高于9000英尺
雷暴, 雨, 高吹尘
短暂存在
从 23日的 18点(UTC)到 23日的 22点(UTC)
风速15节,风向东北,有时为25节阵风
能見度: 3000
散云层高于2000英尺
少量云层高于3000英尺, 积雨云.
多云层高于9000英尺
雷暴, 雨,

TAF: VIAG 221700Z 2218/2400 04005KT 6000 SCT030 SCT090 TEMPO 2222/2302 02010G20KT 5000 TSRA SCT020 FEW030CB BKN090 TEMPO 2308/2312 12015G25KT 3000 TSRA BLDU SCT020 FEW030CB BKN090 TEMPO 2318/2322 04015G25KT 3000 TSRA SCT020 FEW030CB BKN090

超过4000个机场的气象观测和天气预报(METAR&TAF报告)。

可查询的气象台以黄色和红色小点在地图上表示。

将鼠标移到小点上方,可查看气象台名称。

然后点击查看天气观测和预报。

如需切换地图:点击带黑十字的绿色按钮放大地图;点击带横线的绿色按钮缩小地图;或者点击绿色箭头查看邻近地区的地图。


METAR-TAF: